createdAt,value
2018-08-11T00:06:44.895Z,22.9
2018-08-11T00:23:34.857Z,23.2
2018-08-11T00:40:24.842Z,22.9
2018-08-11T00:57:14.557Z,22.6
2018-08-11T01:10:42.104Z,22.2
2018-08-11T01:24:09.362Z,22.2
2018-08-11T01:37:36.451Z,21.6
2018-08-11T01:54:24.950Z,21.9
2018-08-11T02:11:13.397Z,21.6
2018-08-11T02:28:02.073Z,21.9
2018-08-11T02:44:50.635Z,21.6
2018-08-11T03:01:39.135Z,21.6
2018-08-11T03:18:27.349Z,21.6
2018-08-11T03:35:15.560Z,21.6
2018-08-11T03:52:03.855Z,21.6
2018-08-11T04:08:52.037Z,21.3
2018-08-11T04:25:40.010Z,21.0
2018-08-11T04:42:27.838Z,21.3
2018-08-11T04:59:15.871Z,21.3
2018-08-11T05:16:03.891Z,21.3
2018-08-11T05:32:51.832Z,21.3
2018-08-11T05:49:39.806Z,21.3
2018-08-11T06:06:27.754Z,21.3
2018-08-11T06:23:15.405Z,21.3
2018-08-11T06:40:03.780Z,21.3
2018-08-11T06:56:51.985Z,21.3
2018-08-11T07:13:40.095Z,21.6
2018-08-11T07:30:28.215Z,21.6
2018-08-11T07:47:16.495Z,21.3
2018-08-11T08:04:05.544Z,21.3
2018-08-11T08:20:52.655Z,21.9
2018-08-11T08:37:41.202Z,21.6
2018-08-11T08:54:29.644Z,21.9
2018-08-11T09:11:18.161Z,21.9
2018-08-11T09:28:08.221Z,22.2
2018-08-11T09:44:56.196Z,22.6
2018-08-11T10:01:46.237Z,22.6
2018-08-11T10:18:35.393Z,22.6
2018-08-11T10:35:25.098Z,22.9
2018-08-11T10:52:15.404Z,23.2
2018-08-11T11:09:05.535Z,23.2
2018-08-11T11:24:15.044Z,23.8
2018-08-11T11:41:06.082Z,23.8
2018-08-11T11:57:57.288Z,24.2
2018-08-11T12:14:49.180Z,24.5
2018-08-11T12:31:41.621Z,24.5
2018-08-11T12:48:32.920Z,24.8
2018-08-11T13:05:25.114Z,25.1
2018-08-11T13:22:17.741Z,25.1
2018-08-11T13:39:10.543Z,25.1
2018-08-11T13:56:03.296Z,25.4
2018-08-11T14:12:56.131Z,25.4
2018-08-11T14:29:48.978Z,25.4
2018-08-11T14:46:41.865Z,25.4
2018-08-11T15:03:34.672Z,25.1
2018-08-11T15:20:27.429Z,25.1
2018-08-11T15:28:53.838Z,25.1
2018-08-11T15:42:23.795Z,25.1
2018-08-11T15:59:16.190Z,24.8
2018-08-11T16:16:08.588Z,24.8
2018-08-11T16:33:01.166Z,24.8
2018-08-11T16:49:53.105Z,24.8
2018-08-11T17:06:45.468Z,24.8
2018-08-11T17:23:37.681Z,24.8
2018-08-11T17:40:29.957Z,24.5
2018-08-11T17:57:22.171Z,24.5
2018-08-11T18:14:14.200Z,24.5
2018-08-11T18:31:06.089Z,24.5
2018-08-11T18:47:58.191Z,24.2
2018-08-11T19:04:49.627Z,24.2
2018-08-11T19:21:41.324Z,23.8
2018-08-11T19:38:32.956Z,23.8
2018-08-11T19:55:24.540Z,23.8
2018-08-11T20:12:15.996Z,23.8
2018-08-11T20:29:07.735Z,23.8
2018-08-11T20:45:59.137Z,23.8
2018-08-11T21:02:50.738Z,23.5
2018-08-11T21:19:41.672Z,23.5
2018-08-11T21:36:32.115Z,23.5
2018-08-11T21:53:22.875Z,23.5
2018-08-11T22:10:12.902Z,23.2
2018-08-11T22:27:03.353Z,23.2
2018-08-11T22:43:53.058Z,23.2
2018-08-11T23:00:42.920Z,22.9
2018-08-11T23:17:32.902Z,22.9
2018-08-11T23:34:22.736Z,22.9
2018-08-11T23:51:13.159Z,22.9
